• Join FlightAware (Why Join?)
  • Login
  • US Flag 
11:25AM EDT


 

Airport Tracker/Info


-or-


 

Live Flight TrackerFlight Track Log ✈ CHQ5017 ✈ 06-Jul-2013 ✈ KORD - KAZO

Flight Track Log - Related Links

Times and Time Zones

All times are in EDT time to prevent confusion due to time zone crossing. See the CHQ5017 flight status page for this flight to view local times or setup timezone preferences in your user account.

Time Position Orientation Groundspeed Altitude Reporting Facility
EDT Latitude Longitude Course Direction KTS MPH feet Rate Location/Type
04:40PM 41.9333 -87.9000 78° East 169 194 2,300  Level Chicago TRACON
04:41PM 41.9167 -87.8500 114° Southeast 210 242 4,400 2,100 Climbing Chicago TRACON
04:42PM 42.0167 -87.6151 90° East  Level FlightAware Approximate
04:42PM 41.9333 -87.7500 77° East 252 290 6,300  Level Chicago TRACON
04:43PM 42.0409 -87.4761 84° East  Level FlightAware Approximate
04:43PM 41.9500 -87.6667 75° East 273 314 8,900  Level Chicago TRACON
04:44PM 42.0562 -87.3268 78° East  Level FlightAware Approximate
04:44PM 41.9642 -87.6239 66° East 271 312 10,000  Level Chicago Center
04:45PM 42.0789 -87.1790 78° East  Level FlightAware Approximate
04:45PM 41.9908 -87.5225 70° East 287 330 12,300  Level Chicago Center
04:46PM 42.0219 -87.4089 70° East 320 368 13,000 300 Climbing Chicago Center
04:47PM 42.0617 -87.2531 71° East 364 419 13,000  Level Chicago Center
04:48PM 42.0953 -87.1236 71° East 369 425 13,000  Level Chicago Center
04:49PM 42.1153 -86.9892 79° East 370 426 13,000  Level Chicago Center
04:50PM 42.1389 -86.8558 77° East 383 441 13,000  Level Chicago Center
04:51PM 42.1714 -86.7267 71° East 375 432 13,000  Level Chicago Center
04:52PM 42.1808 -86.5661 85° East 373 429 13,000  Level Chicago Center
04:53PM 42.1886 -86.4267 86° East 373 429 13,000 -300 Level Chicago Center
04:54PM 42.1967 -86.2858 86° East 376 433 12,500 -780 Descending Chicago Center
04:55PM 42.2031 -86.1492 86° East 368 423 11,500 -1,020 Descending Chicago Center
04:56PM 42.2231 -86.0353 77° East 322 371 10,400 -1,500 Descending Chicago Center
04:57PM 42.2469 -85.9364 72° East 288 331 8,500 -1,980 Descending Chicago Center
04:58PM 42.2681 -85.8369 74° East 279 321 6,400 -2,340 Descending Chicago Center
04:59PM 42.2906 -85.7319 74° East 269 310 3,700 -1,860 Descending Chicago Center
05:00PM 42.3106 -85.6433 73° East 257 296 2,600 -720 Descending Chicago Center
05:01PM 42.3064 -85.5758 95° East 203 234 2,300 -120 Descending Chicago Center
05:02PM 42.2614 -85.5583 164° South 156 180 2,400  Climbing Chicago Center
05:03PM 42.2089 -85.5469 171° South 181 208 2,300  Descending Chicago Center
05:04PM 42.1958 -85.5978 251° West 206 237 2,400  Climbing Chicago Center
05:05PM 42.2672 -85.6053 356° North 216 249 2,300 -60 Descending Chicago Center
05:06PM 42.3114 -85.5906 14° North 205 236 2,300 -300 Level Chicago Center
05:07PM 42.2836 -85.5611 142° Southeast 147 169 1,800 -540 Descending Chicago Center
05:08PM 42.2481 -85.5550 173° South 135 155 1,200 -600 Descending Chicago Center